createdAt,value
2022-11-05T00:00:33.285Z,101187.72
2022-11-05T00:03:18.800Z,101185.63
2022-11-05T00:06:07.524Z,101186.25
2022-11-05T00:08:53.619Z,101185.25
2022-11-05T00:11:42.464Z,101190.47
2022-11-05T00:14:28.143Z,101185.16
2022-11-05T00:16:57.601Z,101179.50
2022-11-05T00:19:25.620Z,101192.09
2022-11-05T00:22:10.884Z,101198.09
2022-11-05T00:24:56.195Z,101197.09
2022-11-05T00:27:24.128Z,101203.91
2022-11-05T00:29:52.150Z,101204.53
2022-11-05T00:32:21.585Z,101206.75
2022-11-05T00:34:49.575Z,101207.59
2022-11-05T00:37:17.671Z,101220.97
2022-11-05T00:39:45.729Z,101212.63
2022-11-05T00:42:30.979Z,101225.19
2022-11-05T00:45:04.810Z,101228.47
2022-11-05T00:47:52.380Z,101230.97
2022-11-05T00:50:22.147Z,101225.34
2022-11-05T00:52:59.825Z,101230.25
2022-11-05T00:55:34.734Z,101223.50
2022-11-05T00:58:04.724Z,101226.53
2022-11-05T01:00:34.715Z,101225.41
2022-11-05T01:03:06.160Z,101231.94
2022-11-05T01:05:35.400Z,101228.25
2022-11-05T01:08:03.353Z,101235.56
2022-11-05T01:10:31.488Z,101232.31
2022-11-05T01:12:59.866Z,101231.53
2022-11-05T01:15:28.096Z,101241.06
2022-11-05T01:17:56.130Z,101240.56
2022-11-05T01:20:25.513Z,101241.13
2022-11-05T01:22:53.524Z,101245.25
2022-11-05T01:25:21.574Z,101242.03
2022-11-05T01:27:49.933Z,101251.25
2022-11-05T01:30:18.288Z,101241.00
2022-11-05T01:32:46.284Z,101255.66
2022-11-05T01:35:16.326Z,101259.25
2022-11-05T01:37:46.665Z,101267.19
2022-11-05T01:40:16.956Z,101265.56
2022-11-05T01:42:45.415Z,101269.34
2022-11-05T01:45:19.305Z,101269.94
2022-11-05T01:47:56.461Z,101271.34
2022-11-05T01:50:30.849Z,101277.63
2022-11-05T01:53:06.952Z,101279.84
2022-11-05T01:55:39.361Z,101283.13
2022-11-05T01:58:09.051Z,101277.50
2022-11-05T02:00:37.890Z,101273.81
2022-11-05T02:03:06.198Z,101284.44
2022-11-05T02:05:35.282Z,101287.66
2022-11-05T02:08:05.136Z,101285.75
2022-11-05T02:10:33.723Z,101282.53
2022-11-05T02:13:03.639Z,101280.63
2022-11-05T02:15:44.337Z,101277.97
2022-11-05T02:18:21.810Z,101282.09
2022-11-05T02:21:00.102Z,101278.56
2022-11-05T02:24:03.904Z,101286.19
2022-11-05T02:27:13.869Z,101285.75
2022-11-05T02:30:09.373Z,101297.66
2022-11-05T02:32:51.635Z,101293.31
2022-11-05T02:35:33.175Z,101302.00
2022-11-05T02:38:09.558Z,101298.75
2022-11-05T02:40:47.735Z,101304.97
2022-11-05T02:43:26.332Z,101299.34
2022-11-05T02:46:04.379Z,101291.50
2022-11-05T02:48:46.111Z,101301.53
2022-11-05T02:51:20.658Z,101304.75
2022-11-05T02:53:55.162Z,101295.03
2022-11-05T02:56:28.189Z,101298.53
2022-11-05T02:58:56.120Z,101290.72
2022-11-05T03:01:24.197Z,101293.41
2022-11-05T03:03:56.977Z,101293.69
2022-11-05T03:06:41.055Z,101298.88
2022-11-05T03:09:38.733Z,101292.41
2022-11-05T03:12:21.487Z,101287.59
2022-11-05T03:14:57.918Z,101286.00
2022-11-05T03:17:34.941Z,101291.16
2022-11-05T03:20:15.237Z,101294.28
2022-11-05T03:22:48.796Z,101299.47
2022-11-05T03:25:21.721Z,101292.72
2022-11-05T03:27:54.148Z,101299.25
2022-11-05T03:30:22.400Z,101296.00
2022-11-05T03:33:00.252Z,101300.94
2022-11-05T03:35:35.712Z,101301.22
2022-11-05T03:38:07.882Z,101295.00
2022-11-05T03:40:38.089Z,101306.34
2022-11-05T03:43:09.937Z,101310.16
2022-11-05T03:45:43.054Z,101311.75
2022-11-05T03:48:13.980Z,101315.56
2022-11-05T03:50:50.595Z,101323.16
2022-11-05T03:53:22.621Z,101312.34
2022-11-05T03:55:56.919Z,101319.34
2022-11-05T03:58:26.107Z,101331.28
2022-11-05T04:00:54.479Z,101329.16
2022-11-05T04:03:22.429Z,101324.81
2022-11-05T04:06:06.248Z,101325.41
2022-11-05T04:08:51.683Z,101337.31
2022-11-05T04:11:37.192Z,101344.06
2022-11-05T04:14:05.139Z,101340.06
2022-11-05T04:16:50.566Z,101335.22
2022-11-05T04:19:38.446Z,101340.94
2022-11-05T04:22:24.217Z,101347.44
2022-11-05T04:24:52.144Z,101342.28
2022-11-05T04:27:20.078Z,101354.72
2022-11-05T04:30:05.517Z,101349.31
2022-11-05T04:32:33.628Z,101346.88
2022-11-05T04:35:01.575Z,101352.59
2022-11-05T04:37:31.016Z,101350.47
2022-11-05T04:39:58.963Z,101355.88
2022-11-05T04:42:26.876Z,101358.03
2022-11-05T04:44:54.827Z,101346.97
2022-11-05T04:47:22.827Z,101354.56
2022-11-05T04:49:51.142Z,101348.91
2022-11-05T04:52:18.998Z,101357.03
2022-11-05T04:54:48.375Z,101360.31
2022-11-05T04:57:16.317Z,101365.16
2022-11-05T04:59:44.284Z,101365.44
2022-11-05T05:02:12.220Z,101361.44
2022-11-05T05:04:40.140Z,101361.22
2022-11-05T05:07:07.986Z,101363.13
2022-11-05T05:09:35.898Z,101365.28
2022-11-05T05:12:05.370Z,101370.19
2022-11-05T05:14:33.476Z,101375.59
2022-11-05T05:17:01.533Z,101378.84
2022-11-05T05:19:30.079Z,101363.97
2022-11-05T05:21:57.009Z,101374.78
2022-11-05T05:24:25.298Z,101376.97
2022-11-05T05:26:53.180Z,101372.94
2022-11-05T05:29:22.486Z,101370.50
2022-11-05T05:31:50.360Z,101382.09
2022-11-05T05:34:18.259Z,101380.50
2022-11-05T05:36:46.141Z,101375.09
2022-11-05T05:39:14.586Z,101378.06
2022-11-05T05:41:43.536Z,101386.47
2022-11-05T05:44:11.466Z,101391.88
2022-11-05T05:46:40.846Z,101381.88
2022-11-05T05:49:12.714Z,101385.41
2022-11-05T05:51:41.203Z,101392.69
2022-11-05T05:54:09.423Z,101394.34
2022-11-05T05:56:37.330Z,101386.78
2022-11-05T05:59:06.977Z,101398.44
2022-11-05T06:01:36.062Z,101400.06
2022-11-05T06:04:06.001Z,101399.53
2022-11-05T06:06:34.216Z,101405.47
2022-11-05T06:09:02.213Z,101402.53
2022-11-05T06:11:30.101Z,101401.69
2022-11-05T06:13:58.056Z,101411.69
2022-11-05T06:16:26.023Z,101413.56
2022-11-05T06:18:53.940Z,101422.19
2022-11-05T06:21:23.441Z,101409.25
2022-11-05T06:23:51.336Z,101414.38
2022-11-05T06:26:19.827Z,101417.88
2022-11-05T06:28:48.025Z,101421.66
2022-11-05T06:31:16.202Z,101427.06
2022-11-05T06:33:44.071Z,101430.03
2022-11-05T06:36:16.443Z,101430.06
2022-11-05T06:38:46.011Z,101434.94
2022-11-05T06:41:14.141Z,101441.13
2022-11-05T06:43:42.545Z,101438.44
2022-11-05T06:46:12.073Z,101448.97
2022-11-05T06:48:41.144Z,101455.16
2022-11-05T06:51:09.766Z,101452.75
2022-11-05T06:53:37.979Z,101467.06
2022-11-05T06:56:08.952Z,101465.16
2022-11-05T06:58:36.950Z,101460.56
2022-11-05T07:01:08.123Z,101468.94
2022-11-05T07:03:36.403Z,101471.38
2022-11-05T07:06:05.678Z,101465.97
2022-11-05T07:08:34.592Z,101473.03
2022-11-05T07:11:02.815Z,101468.97
2022-11-05T07:13:32.085Z,101470.34
2022-11-05T07:16:00.220Z,101471.41
2022-11-05T07:18:28.170Z,101475.75
2022-11-05T07:20:56.170Z,101477.63
2022-11-05T07:23:24.055Z,101473.84
2022-11-05T07:25:52.000Z,101474.38
2022-11-05T07:28:20.201Z,101481.38
2022-11-05T07:30:49.704Z,101480.28
2022-11-05T07:33:17.817Z,101481.59
2022-11-05T07:35:45.915Z,101486.94
2022-11-05T07:38:14.063Z,101487.22
2022-11-05T07:40:42.200Z,101492.31
2022-11-05T07:43:10.588Z,101490.13
2022-11-05T07:45:38.846Z,101493.88
2022-11-05T07:48:08.615Z,101500.94
2022-11-05T07:50:37.825Z,101503.63
2022-11-05T07:53:07.351Z,101509.03
2022-11-05T07:55:35.490Z,101506.88
2022-11-05T07:58:03.785Z,101511.19
2022-11-05T08:00:32.204Z,101510.66
2022-11-05T08:03:07.358Z,101514.41
2022-11-05T08:05:39.586Z,101507.38
2022-11-05T08:08:09.129Z,101502.19
2022-11-05T08:10:37.760Z,101499.25
2022-11-05T08:13:06.801Z,101499.75
2022-11-05T08:15:35.716Z,101502.19
2022-11-05T08:18:05.640Z,101503.50
2022-11-05T08:20:34.146Z,101500.53
2022-11-05T08:23:03.994Z,101495.94
2022-11-05T08:25:32.841Z,101497.28
2022-11-05T08:28:02.899Z,101497.28
2022-11-05T08:30:31.904Z,101493.19
2022-11-05T08:33:01.445Z,101489.13
2022-11-05T08:35:30.558Z,101493.69
2022-11-05T08:38:00.687Z,101491.53
2022-11-05T08:40:31.695Z,101496.38
2022-11-05T08:43:00.558Z,101498.56
2022-11-05T08:45:29.106Z,101507.72
2022-11-05T08:48:00.643Z,101503.91
2022-11-05T08:50:28.853Z,101504.19
2022-11-05T08:52:56.873Z,101516.84
2022-11-05T08:55:25.149Z,101510.59
2022-11-05T08:57:58.189Z,101513.56
2022-11-05T09:00:26.440Z,101514.59
2022-11-05T09:02:54.628Z,101508.06
2022-11-05T09:05:22.922Z,101517.75
2022-11-05T09:07:53.143Z,101518.75
2022-11-05T09:10:24.996Z,101511.63
2022-11-05T09:12:52.985Z,101516.41
2022-11-05T09:15:23.325Z,101515.78
2022-11-05T09:17:51.557Z,101514.66
2022-11-05T09:20:19.975Z,101516.72
2022-11-05T09:22:47.927Z,101523.72
2022-11-05T09:25:16.471Z,101528.59
2022-11-05T09:27:44.489Z,101526.84
2022-11-05T09:30:14.603Z,101523.00
2022-11-05T09:32:44.072Z,101524.56
2022-11-05T09:35:11.999Z,101520.72
2022-11-05T09:37:40.412Z,101517.34
2022-11-05T09:40:09.038Z,101517.81
2022-11-05T09:42:42.366Z,101517.69
2022-11-05T09:45:16.390Z,101525.47
2022-11-05T09:47:50.129Z,101516.97
2022-11-05T09:50:21.754Z,101527.66
2022-11-05T09:52:49.975Z,101521.63
2022-11-05T09:55:27.913Z,101524.22
2022-11-05T09:58:00.140Z,101514.00
2022-11-05T10:00:28.820Z,101525.53
2022-11-05T10:03:01.195Z,101528.38
2022-11-05T10:05:29.949Z,101525.78
2022-11-05T10:08:03.009Z,101528.44
2022-11-05T10:10:40.831Z,101520.53
2022-11-05T10:13:17.362Z,101522.03
2022-11-05T10:15:54.025Z,101516.81
2022-11-05T10:18:28.479Z,101523.25
2022-11-05T10:20:57.148Z,101519.88
2022-11-05T10:23:27.869Z,101518.91
2022-11-05T10:25:58.446Z,101520.13
2022-11-05T10:28:29.097Z,101516.41
2022-11-05T10:31:00.700Z,101526.00
2022-11-05T10:33:34.744Z,101516.81
2022-11-05T10:36:06.330Z,101524.28
2022-11-05T10:38:34.818Z,101514.13
2022-11-05T10:41:21.500Z,101525.22
2022-11-05T10:43:52.534Z,101522.69
2022-11-05T10:46:30.480Z,101527.63
2022-11-05T10:49:20.507Z,101531.63
2022-11-05T10:51:55.268Z,101534.25
2022-11-05T10:54:25.457Z,101532.28
2022-11-05T10:56:53.453Z,101531.88
2022-11-05T10:59:23.535Z,101538.84
2022-11-05T11:01:58.254Z,101527.81
2022-11-05T11:04:34.906Z,101527.41
2022-11-05T11:07:05.918Z,101528.13
2022-11-05T11:09:37.664Z,101517.72
2022-11-05T11:12:08.923Z,101531.84
2022-11-05T11:14:36.908Z,101525.16
2022-11-05T11:17:19.080Z,101523.28
2022-11-05T11:19:48.418Z,101530.41
2022-11-05T11:22:21.947Z,101525.75
2022-11-05T11:24:53.850Z,101530.97
2022-11-05T11:27:26.001Z,101528.34
2022-11-05T11:29:58.969Z,101527.91
2022-11-05T11:32:33.635Z,101531.94
2022-11-05T11:35:03.864Z,101527.91
2022-11-05T11:37:35.041Z,101536.38
2022-11-05T11:40:10.004Z,101536.56
2022-11-05T11:42:42.419Z,101530.81
2022-11-05T11:45:18.623Z,101535.94
2022-11-05T11:47:50.041Z,101532.31
2022-11-05T11:50:42.302Z,101532.63
2022-11-05T11:53:31.831Z,101534.53
2022-11-05T11:56:06.172Z,101533.50
2022-11-05T11:58:40.928Z,101540.75
2022-11-05T12:01:43.655Z,101529.84
2022-11-05T12:04:23.957Z,101529.41
2022-11-05T12:07:02.959Z,101523.34
2022-11-05T12:09:45.429Z,101526.75
2022-11-05T12:12:15.753Z,101526.59
2022-11-05T12:14:52.578Z,101528.50
2022-11-05T12:17:31.593Z,101531.56
2022-11-05T12:20:24.904Z,101524.50
2022-11-05T12:23:14.560Z,101527.22
2022-11-05T12:25:49.770Z,101529.84
2022-11-05T12:28:51.859Z,101530.00
2022-11-05T12:31:36.129Z,101531.31
2022-11-05T12:34:24.004Z,101530.31
2022-11-05T12:37:12.751Z,101529.56
2022-11-05T12:40:04.486Z,101529.06
2022-11-05T12:42:53.050Z,101531.69
2022-11-05T12:45:31.891Z,101527.50
2022-11-05T12:48:12.994Z,101516.63
2022-11-05T12:50:45.380Z,101507.03
2022-11-05T12:53:30.433Z,101505.63
2022-11-05T12:56:07.922Z,101509.00
2022-11-05T12:58:40.740Z,101503.88
2022-11-05T13:01:12.909Z,101511.25
2022-11-05T13:03:45.588Z,101502.56
2022-11-05T13:06:15.321Z,101494.09
2022-11-05T13:08:50.063Z,101505.19
2022-11-05T13:11:24.298Z,101503.53
2022-11-05T13:14:02.751Z,101496.81
2022-11-05T13:16:35.020Z,101503.06
2022-11-05T13:19:13.989Z,101502.56
2022-11-05T13:21:44.173Z,101500.34
2022-11-05T13:24:18.767Z,101503.53
2022-11-05T13:26:54.311Z,101495.13
2022-11-05T13:29:27.253Z,101500.19
2022-11-05T13:32:01.445Z,101491.03
2022-11-05T13:34:34.848Z,101497.81
2022-11-05T13:37:25.865Z,101489.63
2022-11-05T13:39:57.388Z,101477.91
2022-11-05T13:42:54.380Z,101478.16
2022-11-05T13:45:39.232Z,101471.72
2022-11-05T13:48:28.400Z,101471.72
2022-11-05T13:51:36.171Z,101468.88
2022-11-05T13:54:37.916Z,101463.06
2022-11-05T13:57:24.080Z,101470.50
2022-11-05T14:00:12.736Z,101467.94
2022-11-05T14:02:44.676Z,101462.97
2022-11-05T14:05:29.215Z,101456.13
2022-11-05T14:08:00.406Z,101457.72
2022-11-05T14:10:37.450Z,101459.13
2022-11-05T14:13:19.042Z,101463.44
2022-11-05T14:15:58.744Z,101466.97
2022-11-05T14:18:38.986Z,101468.88
2022-11-05T14:21:28.035Z,101458.50
2022-11-05T14:23:58.857Z,101450.31
2022-11-05T14:26:28.603Z,101443.75
2022-11-05T14:29:38.532Z,101442.25
2022-11-05T14:32:26.355Z,101440.00
2022-11-05T14:35:04.056Z,101428.75
2022-11-05T14:37:36.993Z,101433.28
2022-11-05T14:40:33.982Z,101430.34
2022-11-05T14:43:04.497Z,101440.63
2022-11-05T14:45:36.349Z,101435.81
2022-11-05T14:48:06.981Z,101433.06
2022-11-05T14:50:38.801Z,101442.50
2022-11-05T14:53:25.616Z,101452.44
2022-11-05T14:56:02.137Z,101449.72
2022-11-05T14:58:36.581Z,101449.34
2022-11-05T15:01:07.656Z,101448.22
2022-11-05T15:04:12.231Z,101448.66
2022-11-05T15:06:40.746Z,101434.75
2022-11-05T15:09:24.682Z,101443.06
2022-11-05T15:12:09.080Z,101444.03
2022-11-05T15:14:42.892Z,101441.78
2022-11-05T15:17:18.877Z,101441.97
2022-11-05T15:19:48.130Z,101429.66
2022-11-05T15:22:30.914Z,101431.41
2022-11-05T15:24:59.838Z,101433.50
2022-11-05T15:27:45.281Z,101437.97
2022-11-05T15:30:18.904Z,101429.81
2022-11-05T15:32:46.847Z,101421.91
2022-11-05T15:35:27.206Z,101430.38
2022-11-05T15:38:01.768Z,101431.97
2022-11-05T15:40:32.543Z,101426.38
2022-11-05T15:43:16.438Z,101427.28
2022-11-05T15:45:44.355Z,101420.56
2022-11-05T15:48:16.861Z,101428.22
2022-11-05T15:50:44.877Z,101429.81
2022-11-05T15:53:47.458Z,101417.16
2022-11-05T15:56:22.967Z,101440.34
2022-11-05T15:58:55.770Z,101429.28
2022-11-05T16:01:27.940Z,101437.75
2022-11-05T16:03:58.852Z,101444.13
2022-11-05T16:06:35.559Z,101448.28
2022-11-05T16:09:04.083Z,101440.44
2022-11-05T16:11:32.591Z,101443.16
2022-11-05T16:14:18.314Z,101441.94
2022-11-05T16:16:47.399Z,101436.41
2022-11-05T16:19:40.908Z,101444.69
2022-11-05T16:22:09.830Z,101440.22
2022-11-05T16:24:37.852Z,101454.31
2022-11-05T16:27:06.412Z,101454.03
2022-11-05T16:29:40.608Z,101448.28
2022-11-05T16:32:16.910Z,101451.00
2022-11-05T16:34:49.389Z,101443.81
2022-11-05T16:37:20.458Z,101455.81
2022-11-05T16:39:48.548Z,101447.16
2022-11-05T16:42:40.560Z,101452.72
2022-11-05T16:45:13.750Z,101443.31
2022-11-05T16:47:42.587Z,101449.25
2022-11-05T16:50:23.656Z,101443.53
2022-11-05T16:52:51.742Z,101448.28
2022-11-05T16:55:20.425Z,101448.78
2022-11-05T16:57:52.412Z,101440.81
2022-11-05T17:00:23.127Z,101437.75
2022-11-05T17:02:51.633Z,101439.97
2022-11-05T17:05:23.284Z,101432.91
2022-11-05T17:07:51.827Z,101436.75
2022-11-05T17:10:20.786Z,101436.41
2022-11-05T17:12:48.947Z,101437.50
2022-11-05T17:15:24.661Z,101441.16
2022-11-05T17:17:53.755Z,101439.22
2022-11-05T17:20:28.511Z,101438.25
2022-11-05T17:22:57.804Z,101436.34
2022-11-05T17:25:26.411Z,101435.66
2022-11-05T17:27:54.791Z,101432.63
2022-11-05T17:30:25.502Z,101427.00
2022-11-05T17:32:53.776Z,101436.28
2022-11-05T17:35:22.106Z,101429.22
2022-11-05T17:37:50.334Z,101435.47
2022-11-05T17:40:20.184Z,101433.03
2022-11-05T17:42:48.372Z,101429.03
2022-11-05T17:45:17.136Z,101430.47
2022-11-05T17:47:46.860Z,101430.25
2022-11-05T17:50:16.274Z,101432.66
2022-11-05T17:52:44.835Z,101446.59
2022-11-05T17:55:17.707Z,101445.78
2022-11-05T17:57:47.396Z,101447.22
2022-11-05T18:00:17.001Z,101455.69
2022-11-05T18:02:48.553Z,101453.06
2022-11-05T18:05:17.036Z,101460.91
2022-11-05T18:07:45.294Z,101455.78
2022-11-05T18:10:13.506Z,101454.50
2022-11-05T18:12:42.019Z,101458.50
2022-11-05T18:15:10.798Z,101459.72
2022-11-05T18:17:38.724Z,101460.22
2022-11-05T18:20:17.365Z,101468.38
2022-11-05T18:22:47.206Z,101463.56
2022-11-05T18:25:15.226Z,101461.97
2022-11-05T18:27:43.398Z,101465.66
2022-11-05T18:30:15.383Z,101465.16
2022-11-05T18:32:44.430Z,101461.97
2022-11-05T18:35:14.690Z,101456.53
2022-11-05T18:37:43.458Z,101460.84
2022-11-05T18:40:12.113Z,101446.75
2022-11-05T18:42:40.440Z,101453.50
2022-11-05T18:45:09.875Z,101447.41
2022-11-05T18:47:38.061Z,101446.03
2022-11-05T18:50:07.823Z,101443.31
2022-11-05T18:52:37.273Z,101442.69
2022-11-05T18:55:05.932Z,101443.16
2022-11-05T18:57:34.989Z,101446.41
2022-11-05T19:00:03.119Z,101454.25
2022-11-05T19:02:31.187Z,101455.38
2022-11-05T19:05:28.411Z,101449.63
2022-11-05T19:07:48.935Z,101448.50
2022-11-05T19:10:17.348Z,101444.38
2022-11-05T19:12:45.415Z,101453.03
2022-11-05T19:15:13.483Z,101449.00
2022-11-05T19:17:41.638Z,101452.81
2022-11-05T19:20:10.334Z,101450.72
2022-11-05T19:22:38.456Z,101448.59
2022-11-05T19:25:08.973Z,101447.63
2022-11-05T19:27:37.582Z,101447.84
2022-11-05T19:30:06.610Z,101450.56
2022-11-05T19:32:34.839Z,101440.31
2022-11-05T19:35:02.708Z,101433.84
2022-11-05T19:37:30.638Z,101428.34
2022-11-05T19:39:58.561Z,101435.09
2022-11-05T19:42:28.328Z,101434.00
2022-11-05T19:44:56.279Z,101433.59
2022-11-05T19:47:24.265Z,101431.38
2022-11-05T19:49:52.255Z,101421.59
2022-11-05T19:52:20.248Z,101427.75
2022-11-05T19:54:48.199Z,101427.13
2022-11-05T19:57:16.261Z,101430.78
2022-11-05T19:59:45.580Z,101438.22
2022-11-05T20:02:16.239Z,101446.88
2022-11-05T20:04:45.203Z,101449.09
2022-11-05T20:07:13.268Z,101452.94
2022-11-05T20:09:41.490Z,101463.91
2022-11-05T20:12:09.496Z,101448.88
2022-11-05T20:14:37.633Z,101455.44
2022-11-05T20:17:06.970Z,101448.69
2022-11-05T20:19:35.430Z,101450.31
2022-11-05T20:22:03.470Z,101451.72
2022-11-05T20:24:31.540Z,101441.66
2022-11-05T20:26:59.488Z,101432.97
2022-11-05T20:29:34.750Z,101439.03
2022-11-05T20:32:03.904Z,101439.53
2022-11-05T20:34:35.066Z,101439.53
2022-11-05T20:37:03.286Z,101444.97
2022-11-05T20:39:31.453Z,101441.75
2022-11-05T20:42:00.686Z,101456.53
2022-11-05T20:44:29.101Z,101452.94
2022-11-05T20:46:57.004Z,101456.25
2022-11-05T20:49:25.806Z,101462.78
2022-11-05T20:51:55.556Z,101466.31
2022-11-05T20:54:23.588Z,101470.13
2022-11-05T20:56:51.617Z,101462.47
2022-11-05T20:59:19.488Z,101467.72
2022-11-05T21:01:47.518Z,101465.00
2022-11-05T21:04:15.502Z,101467.72
2022-11-05T21:06:43.436Z,101457.97
2022-11-05T21:09:13.257Z,101460.97
2022-11-05T21:11:58.653Z,101463.19
2022-11-05T21:14:26.752Z,101463.19
2022-11-05T21:16:54.632Z,101448.50
2022-11-05T21:19:24.151Z,101446.78
2022-11-05T21:21:52.377Z,101436.41
2022-11-05T21:24:22.352Z,101429.59
2022-11-05T21:26:51.144Z,101422.72
2022-11-05T21:29:19.668Z,101417.28
2022-11-05T21:31:47.701Z,101417.28
2022-11-05T21:34:15.785Z,101423.53
2022-11-05T21:36:43.665Z,101418.09
2022-11-05T21:39:13.609Z,101425.94
2022-11-05T21:41:43.742Z,101439.94
2022-11-05T21:44:12.379Z,101440.22
2022-11-05T21:46:40.299Z,101430.97
2022-11-05T21:49:09.402Z,101436.22
2022-11-05T21:51:54.856Z,101437.81
2022-11-05T21:54:40.264Z,101446.06
2022-11-05T21:57:32.962Z,101438.72
2022-11-05T22:00:01.783Z,101432.50
2022-11-05T22:02:30.665Z,101425.53
2022-11-05T22:05:00.278Z,101422.34
2022-11-05T22:07:30.048Z,101416.69
2022-11-05T22:09:58.044Z,101418.91
2022-11-05T22:12:27.562Z,101412.19
2022-11-05T22:14:56.634Z,101403.81
2022-11-05T22:17:24.895Z,101413.88
2022-11-05T22:19:52.935Z,101404.13
2022-11-05T22:22:20.905Z,101403.31
2022-11-05T22:24:48.776Z,101398.19
2022-11-05T22:27:18.917Z,101386.81
2022-11-05T22:29:48.375Z,101384.69
2022-11-05T22:32:16.923Z,101382.09
2022-11-05T22:34:44.813Z,101370.22
2022-11-05T22:37:13.845Z,101372.41
2022-11-05T22:39:41.916Z,101370.81
2022-11-05T22:42:10.096Z,101360.56
2022-11-05T22:44:38.657Z,101370.81
2022-11-05T22:47:08.139Z,101370.31
2022-11-05T22:49:36.275Z,101376.25
2022-11-05T22:52:04.500Z,101373.25
2022-11-05T22:54:37.933Z,101369.22
2022-11-05T22:57:07.097Z,101377.84
2022-11-05T22:59:35.013Z,101382.19
2022-11-05T23:02:09.150Z,101365.38
2022-11-05T23:04:39.530Z,101362.38
2022-11-05T23:07:27.842Z,101354.50
2022-11-05T23:10:15.855Z,101351.81
2022-11-05T23:12:44.725Z,101354.50
2022-11-05T23:15:34.526Z,101361.06
2022-11-05T23:18:19.897Z,101365.19
2022-11-05T23:21:06.719Z,101369.81
2022-11-05T23:23:52.095Z,101368.81
2022-11-05T23:26:37.541Z,101356.94
2022-11-05T23:29:05.616Z,101354.50
2022-11-05T23:31:50.765Z,101347.28
2022-11-05T23:34:18.781Z,101351.41
2022-11-05T23:37:05.657Z,101344.56
2022-11-05T23:39:38.222Z,101366.59
2022-11-05T23:42:26.657Z,101364.16
2022-11-05T23:45:14.580Z,101365.59
2022-11-05T23:48:00.192Z,101358.34
2022-11-05T23:50:28.482Z,101355.44
2022-11-05T23:52:58.297Z,101351.91
2022-11-05T23:55:26.967Z,101348.66
2022-11-05T23:57:55.173Z,101344.34
